createdAt,value
2023-02-03T00:00:20.457Z,11.20
2023-02-03T00:07:17.589Z,10.30
2023-02-03T00:10:05.317Z,10.00
2023-02-03T00:12:35.454Z,10.90
2023-02-03T00:15:03.452Z,10.80
2023-02-03T00:17:33.537Z,11.70
2023-02-03T00:20:01.451Z,12.60
2023-02-03T00:22:29.393Z,12.40
2023-02-03T00:24:57.327Z,12.20
2023-02-03T00:27:25.323Z,12.30
2023-02-03T00:29:54.659Z,12.10
2023-02-03T00:32:22.854Z,11.10
2023-02-03T00:34:51.098Z,11.30
2023-02-03T00:37:19.055Z,11.60
2023-02-03T00:39:47.539Z,12.00
2023-02-03T00:42:15.850Z,13.20
2023-02-03T00:44:45.302Z,14.20
2023-02-03T00:47:15.786Z,14.00
2023-02-03T00:49:43.754Z,14.30
2023-02-03T00:52:11.784Z,15.00
2023-02-03T00:54:39.824Z,14.30
2023-02-03T00:57:07.761Z,14.20
2023-02-03T00:59:35.763Z,13.90
2023-02-03T01:02:04.155Z,13.40
2023-02-03T01:04:33.472Z,12.90
2023-02-03T01:07:01.554Z,13.00
2023-02-03T01:09:33.886Z,12.70
2023-02-03T01:12:01.989Z,12.30
2023-02-03T01:14:30.559Z,12.90
2023-02-03T01:16:59.071Z,12.40
2023-02-03T01:19:27.132Z,12.00
2023-02-03T01:21:56.402Z,11.70
2023-02-03T01:24:24.356Z,11.50
2023-02-03T01:26:52.279Z,11.60
2023-02-03T01:29:20.186Z,11.10
2023-02-03T01:31:50.451Z,10.50
2023-02-03T01:34:18.587Z,10.50
2023-02-03T01:36:47.054Z,11.20
2023-02-03T01:39:16.349Z,11.30
2023-02-03T01:41:46.499Z,11.70
2023-02-03T01:44:49.323Z,11.80
2023-02-03T01:47:25.647Z,12.20
2023-02-03T01:49:58.795Z,12.50
2023-02-03T01:52:27.794Z,12.20
2023-02-03T01:54:59.234Z,12.80
2023-02-03T01:57:33.604Z,12.00
2023-02-03T02:00:03.510Z,11.90
2023-02-03T02:02:42.831Z,12.20
2023-02-03T02:05:18.568Z,13.30
2023-02-03T02:07:48.745Z,13.60
2023-02-03T02:10:18.417Z,13.70
2023-02-03T02:12:46.405Z,12.50
2023-02-03T02:15:14.875Z,12.50
2023-02-03T02:17:57.387Z,13.10
2023-02-03T02:20:35.447Z,13.20
2023-02-03T02:23:25.275Z,12.90
2023-02-03T02:26:15.858Z,12.20
2023-02-03T02:29:07.859Z,12.30
2023-02-03T02:31:54.803Z,12.90
2023-02-03T02:34:31.391Z,12.50
2023-02-03T02:37:05.800Z,11.90
2023-02-03T02:39:40.906Z,11.90
2023-02-03T02:42:16.308Z,12.20
2023-02-03T02:44:50.432Z,11.70
2023-02-03T02:47:21.303Z,11.50
2023-02-03T02:49:59.448Z,11.60
2023-02-03T02:52:31.019Z,11.80
2023-02-03T02:55:04.071Z,11.90
2023-02-03T02:57:35.089Z,12.30
2023-02-03T03:00:03.620Z,12.70
2023-02-03T03:02:35.534Z,13.60
2023-02-03T03:05:06.971Z,14.10
2023-02-03T03:07:44.697Z,13.60
2023-02-03T03:10:16.139Z,13.20
2023-02-03T03:12:49.907Z,13.80
2023-02-03T03:15:22.209Z,13.40
2023-02-03T03:17:57.187Z,13.40
2023-02-03T03:20:28.027Z,12.90
2023-02-03T03:22:59.899Z,12.70
2023-02-03T03:25:36.143Z,12.20
2023-02-03T03:28:09.684Z,12.30
2023-02-03T03:30:40.107Z,13.10
2023-02-03T03:33:10.384Z,13.00
2023-02-03T03:35:45.012Z,13.20
2023-02-03T03:38:19.928Z,12.90
2023-02-03T03:40:57.534Z,13.10
2023-02-03T03:43:29.467Z,13.10
2023-02-03T03:46:01.874Z,13.20
2023-02-03T03:48:35.309Z,13.40
2023-02-03T03:51:07.410Z,13.00
2023-02-03T03:53:38.671Z,12.90
2023-02-03T03:56:10.714Z,12.20
2023-02-03T03:58:41.845Z,12.30
2023-02-03T04:01:12.148Z,12.40
2023-02-03T04:03:45.917Z,11.60
2023-02-03T04:06:14.308Z,11.40
2023-02-03T04:08:42.279Z,12.30
2023-02-03T04:11:10.279Z,12.10
2023-02-03T04:13:38.293Z,12.00
2023-02-03T04:16:06.546Z,12.20
2023-02-03T04:18:34.476Z,12.90
2023-02-03T04:21:03.728Z,13.50
2023-02-03T04:23:31.646Z,13.10
2023-02-03T04:26:02.247Z,12.90
2023-02-03T04:28:30.165Z,13.70
2023-02-03T04:31:01.535Z,13.70
2023-02-03T04:33:29.553Z,13.40
2023-02-03T04:35:57.456Z,13.80
2023-02-03T04:38:26.717Z,13.40
2023-02-03T04:40:54.711Z,13.60
2023-02-03T04:43:22.663Z,13.90
2023-02-03T04:45:50.657Z,12.80
2023-02-03T04:48:18.631Z,12.30
2023-02-03T04:50:46.531Z,12.20
2023-02-03T04:53:15.978Z,12.20
2023-02-03T04:55:48.931Z,12.30
2023-02-03T04:58:16.843Z,12.20
2023-02-03T05:00:44.778Z,12.10
2023-02-03T05:03:12.860Z,11.80
2023-02-03T05:05:40.854Z,12.20
2023-02-03T05:08:08.775Z,12.00
2023-02-03T05:10:36.681Z,11.70
2023-02-03T05:13:06.143Z,11.00
2023-02-03T05:15:34.190Z,11.20
2023-02-03T05:18:02.085Z,11.00
2023-02-03T05:20:30.109Z,11.20
2023-02-03T05:22:59.173Z,11.30
2023-02-03T05:25:27.201Z,10.80
2023-02-03T05:27:55.155Z,11.10
2023-02-03T05:30:24.419Z,11.00
2023-02-03T05:32:52.352Z,11.40
2023-02-03T05:35:20.282Z,11.20
2023-02-03T05:37:48.988Z,11.60
2023-02-03T05:40:34.461Z,12.40
2023-02-03T05:43:02.427Z,12.70
2023-02-03T05:45:32.418Z,13.40
2023-02-03T05:48:02.459Z,13.80
2023-02-03T05:50:33.193Z,13.40
2023-02-03T05:53:09.275Z,13.60
2023-02-03T05:55:38.152Z,13.60
2023-02-03T05:58:06.262Z,13.70
2023-02-03T06:00:35.561Z,13.70
2023-02-03T06:03:18.224Z,13.50
2023-02-03T06:05:46.158Z,14.00
2023-02-03T06:08:14.102Z,14.20
2023-02-03T06:10:42.244Z,14.60
2023-02-03T06:13:11.875Z,15.00
2023-02-03T06:15:41.421Z,15.40
2023-02-03T06:18:11.474Z,15.60
2023-02-03T06:20:39.577Z,16.00
2023-02-03T06:23:07.507Z,16.10
2023-02-03T06:25:35.475Z,15.90
2023-02-03T06:28:03.478Z,15.80
2023-02-03T06:30:31.662Z,16.00
2023-02-03T06:33:01.042Z,16.40
2023-02-03T06:35:29.024Z,16.40
2023-02-03T06:37:56.959Z,16.50
2023-02-03T06:40:25.115Z,16.60
2023-02-03T06:42:53.252Z,16.80
2023-02-03T06:45:24.842Z,17.00
2023-02-03T06:47:53.131Z,17.10
2023-02-03T06:50:22.436Z,17.20
2023-02-03T06:52:51.438Z,17.40
2023-02-03T06:55:19.624Z,17.50
2023-02-03T06:57:49.189Z,17.60
2023-02-03T07:00:19.612Z,17.80
2023-02-03T07:02:47.823Z,17.80
2023-02-03T07:05:15.866Z,17.80
2023-02-03T07:07:45.141Z,17.90
2023-02-03T07:10:13.154Z,17.90
2023-02-03T07:12:41.094Z,17.80
2023-02-03T07:15:12.702Z,17.90
2023-02-03T07:17:40.663Z,17.40
2023-02-03T07:20:09.695Z,17.40
2023-02-03T07:22:38.687Z,17.20
2023-02-03T07:25:10.937Z,16.60
2023-02-03T07:27:38.903Z,17.00
2023-02-03T07:30:07.840Z,17.00
2023-02-03T07:32:35.851Z,17.00
2023-02-03T07:35:03.795Z,16.90
2023-02-03T07:37:31.699Z,17.20
2023-02-03T07:39:59.695Z,17.30
2023-02-03T07:42:28.921Z,17.40
2023-02-03T07:44:56.954Z,17.60
2023-02-03T07:47:24.952Z,17.60
2023-02-03T07:49:52.855Z,17.70
2023-02-03T07:52:22.030Z,17.50
2023-02-03T07:54:50.099Z,17.70
2023-02-03T07:57:18.023Z,17.40
2023-02-03T07:59:47.320Z,17.30
2023-02-03T08:02:15.250Z,17.40
2023-02-03T08:04:43.255Z,17.60
2023-02-03T08:07:12.210Z,17.60
2023-02-03T08:09:40.167Z,17.70
2023-02-03T08:12:08.404Z,17.90
2023-02-03T08:14:36.355Z,18.10
2023-02-03T08:17:05.593Z,18.20
2023-02-03T08:19:33.954Z,18.40
2023-02-03T08:22:02.071Z,18.40
2023-02-03T08:24:29.994Z,18.40
2023-02-03T08:26:58.149Z,17.80
2023-02-03T08:29:26.075Z,18.00
2023-02-03T08:31:55.002Z,18.20
2023-02-03T08:34:24.365Z,18.40
2023-02-03T08:36:52.332Z,17.80
2023-02-03T08:39:20.287Z,18.10
2023-02-03T08:41:48.297Z,17.30
2023-02-03T08:44:16.177Z,16.90
2023-02-03T08:46:44.177Z,17.00
2023-02-03T08:49:12.223Z,16.40
2023-02-03T08:51:41.564Z,16.10
2023-02-03T08:54:09.474Z,15.80
2023-02-03T08:56:37.468Z,15.90
2023-02-03T08:59:05.455Z,15.20
2023-02-03T09:01:33.421Z,15.70
2023-02-03T09:04:01.974Z,16.20
2023-02-03T09:06:38.675Z,16.00
2023-02-03T09:09:08.077Z,15.70
2023-02-03T09:11:35.983Z,16.10
2023-02-03T09:14:05.242Z,15.70
2023-02-03T09:16:34.721Z,15.40
2023-02-03T09:19:03.347Z,15.50
2023-02-03T09:21:36.103Z,15.00
2023-02-03T09:24:13.959Z,15.40
2023-02-03T09:26:41.903Z,16.00
2023-02-03T09:29:09.968Z,15.90
2023-02-03T09:31:38.209Z,15.70
2023-02-03T09:34:06.165Z,16.30
2023-02-03T09:36:34.592Z,16.70
2023-02-03T09:39:02.822Z,16.40
2023-02-03T09:41:51.139Z,16.40
2023-02-03T09:44:28.261Z,16.40
2023-02-03T09:47:01.579Z,16.80
2023-02-03T09:49:38.592Z,16.30
2023-02-03T09:52:13.820Z,16.30
2023-02-03T09:54:45.806Z,15.00
2023-02-03T09:57:21.722Z,14.70
2023-02-03T09:59:50.314Z,15.00
2023-02-03T10:02:30.060Z,14.50
2023-02-03T10:05:01.224Z,15.00
2023-02-03T10:07:35.529Z,15.00
2023-02-03T10:10:12.819Z,15.10
2023-02-03T10:13:01.489Z,15.20
2023-02-03T10:15:56.840Z,15.60
2023-02-03T10:18:28.927Z,14.80
2023-02-03T10:21:01.210Z,14.90
2023-02-03T10:23:32.532Z,15.00
2023-02-03T10:26:03.545Z,15.20
2023-02-03T10:28:38.868Z,15.80
2023-02-03T10:31:16.804Z,16.00
2023-02-03T10:33:46.923Z,16.30
2023-02-03T10:36:21.245Z,15.40
2023-02-03T10:38:59.200Z,15.80
2023-02-03T10:41:28.924Z,15.90
2023-02-03T10:43:59.178Z,16.50
2023-02-03T10:46:30.301Z,16.70
2023-02-03T10:48:58.844Z,16.90
2023-02-03T10:51:32.722Z,17.10
2023-02-03T10:54:01.614Z,16.40
2023-02-03T10:56:33.000Z,17.20
2023-02-03T10:59:02.839Z,17.30
2023-02-03T11:01:42.527Z,17.40
2023-02-03T11:04:26.724Z,17.50
2023-02-03T11:06:57.298Z,17.20
2023-02-03T11:09:32.892Z,17.80
2023-02-03T11:12:10.702Z,17.40
2023-02-03T11:14:43.071Z,17.50
2023-02-03T11:17:17.014Z,18.10
2023-02-03T11:19:47.334Z,17.70
2023-02-03T11:22:28.533Z,18.00
2023-02-03T11:24:57.463Z,17.80
2023-02-03T11:27:27.677Z,17.90
2023-02-03T11:30:11.042Z,18.30
2023-02-03T11:32:42.492Z,18.40
2023-02-03T11:35:18.585Z,18.50
2023-02-03T11:37:48.697Z,18.50
2023-02-03T11:40:28.315Z,18.70
2023-02-03T11:43:14.863Z,18.80
2023-02-03T11:45:46.630Z,18.80
2023-02-03T11:48:26.265Z,18.80
2023-02-03T11:51:01.749Z,18.90
2023-02-03T11:53:56.240Z,18.80
2023-02-03T11:56:36.177Z,18.90
2023-02-03T11:59:21.368Z,18.90
2023-02-03T12:02:16.127Z,18.90
2023-02-03T12:05:05.987Z,18.80
2023-02-03T12:07:54.569Z,18.70
2023-02-03T12:10:36.973Z,18.70
2023-02-03T12:13:18.954Z,18.60
2023-02-03T12:16:02.797Z,18.80
2023-02-03T12:18:48.994Z,18.80
2023-02-03T12:21:33.790Z,18.80
2023-02-03T12:24:08.726Z,18.80
2023-02-03T12:26:43.027Z,18.40
2023-02-03T12:29:15.585Z,17.90
2023-02-03T12:31:50.929Z,18.50
2023-02-03T12:34:25.902Z,18.60
2023-02-03T12:36:58.520Z,18.70
2023-02-03T12:39:33.785Z,18.50
2023-02-03T12:42:05.374Z,18.70
2023-02-03T12:44:43.158Z,18.70
2023-02-03T12:47:19.107Z,18.90
2023-02-03T12:49:53.569Z,19.00
2023-02-03T12:52:27.614Z,19.10
2023-02-03T12:55:08.343Z,19.00
2023-02-03T12:57:39.579Z,19.10
2023-02-03T13:00:26.896Z,19.10
2023-02-03T13:03:08.862Z,19.10
2023-02-03T13:05:44.521Z,19.00
2023-02-03T13:08:19.861Z,19.00
2023-02-03T13:10:51.335Z,19.10
2023-02-03T13:13:30.905Z,19.20
2023-02-03T13:16:01.036Z,19.20
2023-02-03T13:18:33.581Z,19.20
2023-02-03T13:21:02.987Z,19.30
2023-02-03T13:23:33.904Z,19.30
2023-02-03T13:26:22.844Z,19.30
2023-02-03T13:29:09.872Z,19.30
2023-02-03T13:31:53.777Z,19.20
2023-02-03T13:34:41.827Z,19.30
2023-02-03T13:37:31.848Z,19.30
2023-02-03T13:40:16.759Z,19.30
2023-02-03T13:42:48.340Z,19.30
2023-02-03T13:45:23.243Z,19.30
2023-02-03T13:47:53.640Z,19.30
2023-02-03T13:50:25.079Z,19.40
2023-02-03T13:53:04.015Z,19.40
2023-02-03T13:55:37.939Z,19.40
2023-02-03T13:58:07.769Z,19.40
2023-02-03T14:01:15.691Z,19.40
2023-02-03T14:03:49.629Z,19.40
2023-02-03T14:07:00.719Z,19.40
2023-02-03T14:09:46.567Z,19.40
2023-02-03T14:12:33.925Z,19.40
2023-02-03T14:15:17.546Z,19.30
2023-02-03T14:18:05.941Z,19.20
2023-02-03T14:20:47.830Z,19.20
2023-02-03T14:23:22.341Z,19.20
2023-02-03T14:25:55.338Z,19.10
2023-02-03T14:28:26.807Z,19.10
2023-02-03T14:31:10.856Z,19.10
2023-02-03T14:34:06.377Z,19.20
2023-02-03T14:36:54.876Z,19.20
2023-02-03T14:40:10.466Z,19.10
2023-02-03T14:43:19.920Z,19.10
2023-02-03T14:46:20.815Z,19.00
2023-02-03T14:49:04.707Z,19.00
2023-02-03T14:51:52.874Z,18.70
2023-02-03T14:54:38.996Z,18.50
2023-02-03T14:57:23.247Z,18.60
2023-02-03T14:59:58.654Z,18.30
2023-02-03T15:02:28.516Z,17.80
2023-02-03T15:05:30.312Z,16.90
2023-02-03T15:08:01.291Z,16.60
2023-02-03T15:10:33.863Z,16.70
2023-02-03T15:13:02.811Z,16.10
2023-02-03T15:15:37.273Z,15.60
2023-02-03T15:18:21.127Z,15.00
2023-02-03T15:20:54.372Z,15.10
2023-02-03T15:23:25.236Z,14.60
2023-02-03T15:25:57.860Z,14.50
2023-02-03T15:28:27.714Z,14.80
2023-02-03T15:31:03.515Z,14.60
2023-02-03T15:33:36.069Z,14.30
2023-02-03T15:36:10.157Z,14.10
2023-02-03T15:38:41.428Z,13.70
2023-02-03T15:41:17.902Z,14.20
2023-02-03T15:43:48.794Z,14.00
2023-02-03T15:46:24.160Z,13.70
2023-02-03T15:48:57.637Z,13.60
2023-02-03T15:51:32.092Z,13.40
2023-02-03T15:54:03.738Z,13.60
2023-02-03T15:56:37.768Z,13.50
2023-02-03T15:59:07.067Z,13.50
2023-02-03T16:01:36.423Z,13.30
2023-02-03T16:04:14.445Z,13.00
2023-02-03T16:06:45.999Z,12.90
2023-02-03T16:09:29.292Z,12.90
2023-02-03T16:12:06.943Z,12.70
2023-02-03T16:14:36.450Z,12.60
2023-02-03T16:17:06.853Z,12.90
2023-02-03T16:19:38.280Z,12.70
2023-02-03T16:22:21.391Z,12.50
2023-02-03T16:24:49.384Z,12.60
2023-02-03T16:27:33.798Z,12.50
2023-02-03T16:30:43.364Z,12.10
2023-02-03T16:33:35.338Z,12.00
2023-02-03T16:36:29.354Z,12.10
2023-02-03T16:39:16.154Z,12.30
2023-02-03T16:42:01.548Z,11.70
2023-02-03T16:44:46.992Z,11.40
2023-02-03T16:47:42.106Z,11.00
2023-02-03T16:50:38.684Z,10.70
2023-02-03T16:53:12.341Z,10.70
2023-02-03T16:55:40.383Z,11.00
2023-02-03T16:58:08.722Z,11.00
2023-02-03T17:00:36.832Z,10.80
2023-02-03T17:03:05.644Z,10.90
2023-02-03T17:05:37.930Z,10.60
2023-02-03T17:08:06.214Z,10.50
2023-02-03T17:10:35.108Z,10.40
2023-02-03T17:13:03.056Z,10.50
2023-02-03T17:15:31.603Z,10.90
2023-02-03T17:17:59.953Z,11.50
2023-02-03T17:20:27.990Z,11.90
2023-02-03T17:22:57.357Z,12.10
2023-02-03T17:25:25.259Z,12.00
2023-02-03T17:27:56.490Z,12.40
2023-02-03T17:30:24.505Z,11.90
2023-02-03T17:32:52.657Z,11.60
2023-02-03T17:35:20.582Z,11.40
2023-02-03T17:37:48.476Z,11.50
2023-02-03T17:54:13.808Z,11.60
2023-02-03T17:56:47.352Z,11.30
2023-02-03T17:59:17.958Z,11.30
2023-02-03T18:01:46.759Z,11.50
2023-02-03T18:04:15.091Z,11.40
2023-02-03T18:06:43.091Z,11.40
2023-02-03T18:09:13.998Z,11.60
2023-02-03T18:11:44.777Z,11.60
2023-02-03T18:14:14.926Z,11.90
2023-02-03T18:16:43.952Z,12.00
2023-02-03T18:19:15.105Z,12.10
2023-02-03T18:21:43.956Z,12.20
2023-02-03T18:24:13.981Z,12.40
2023-02-03T18:26:49.766Z,12.50
2023-02-03T18:29:18.557Z,12.20
2023-02-03T18:31:46.682Z,12.00
2023-02-03T18:34:15.720Z,12.10
2023-02-03T18:36:43.814Z,12.40
2023-02-03T18:39:12.730Z,12.60
2023-02-03T18:41:40.896Z,12.50
2023-02-03T18:44:10.316Z,12.50
2023-02-03T18:46:38.268Z,12.40
2023-02-03T18:49:11.027Z,12.10
2023-02-03T18:51:39.312Z,12.30
2023-02-03T18:54:07.234Z,12.30
2023-02-03T18:56:35.931Z,12.20
2023-02-03T18:59:08.488Z,12.00
2023-02-03T19:01:38.921Z,11.70
2023-02-03T19:04:07.433Z,12.10
2023-02-03T19:06:36.435Z,12.00
2023-02-03T19:09:05.406Z,12.30
2023-02-03T19:11:34.970Z,12.70
2023-02-03T19:14:03.034Z,13.60
2023-02-03T19:16:31.213Z,13.10
2023-02-03T19:19:01.880Z,13.10
2023-02-03T19:21:29.797Z,13.00
2023-02-03T19:23:57.775Z,12.80
2023-02-03T19:26:27.642Z,13.30
2023-02-03T19:28:58.476Z,13.60
2023-02-03T19:31:26.578Z,13.60
2023-02-03T19:33:54.693Z,14.00
2023-02-03T19:36:23.954Z,14.60
2023-02-03T19:38:52.082Z,14.50
2023-02-03T19:41:20.190Z,14.40
2023-02-03T19:43:51.848Z,14.20
2023-02-03T19:46:21.760Z,13.90
2023-02-03T19:48:50.034Z,13.50
2023-02-03T19:51:18.090Z,13.40
2023-02-03T19:53:47.427Z,13.30
2023-02-03T19:56:15.805Z,13.10
2023-02-03T19:58:45.875Z,13.60
2023-02-03T20:01:15.582Z,13.90
2023-02-03T20:03:43.923Z,14.20
2023-02-03T20:06:12.078Z,14.10
2023-02-03T20:08:40.527Z,13.90
2023-02-03T20:11:14.787Z,13.60
2023-02-03T20:13:43.415Z,13.70
2023-02-03T20:16:11.558Z,13.80
2023-02-03T20:18:42.186Z,14.00
2023-02-03T20:21:10.518Z,13.60
2023-02-03T20:23:38.736Z,13.40
2023-02-03T20:26:07.097Z,13.20
2023-02-03T20:28:36.425Z,13.00
2023-02-03T20:31:05.248Z,13.00
2023-02-03T20:33:33.314Z,12.90
2023-02-03T20:36:01.226Z,12.40
2023-02-03T20:38:29.461Z,12.40
2023-02-03T20:40:57.373Z,12.90
2023-02-03T20:43:27.880Z,13.20
2023-02-03T20:45:57.142Z,13.40
2023-02-03T20:48:25.631Z,13.50
2023-02-03T20:50:53.990Z,13.40
2023-02-03T20:53:24.015Z,14.00
2023-02-03T20:55:52.910Z,13.70
2023-02-03T20:58:25.209Z,13.60
2023-02-03T21:00:57.089Z,13.60
2023-02-03T21:03:45.098Z,13.10
2023-02-03T21:06:15.017Z,13.30
2023-02-03T21:08:43.682Z,13.50
2023-02-03T21:11:13.290Z,13.50
2023-02-03T21:13:43.414Z,13.40
2023-02-03T21:16:17.864Z,13.20
2023-02-03T21:18:49.698Z,13.10
2023-02-03T21:21:24.685Z,12.80
2023-02-03T21:23:53.512Z,13.10
2023-02-03T21:26:23.288Z,12.90
2023-02-03T21:28:53.028Z,13.10
2023-02-03T21:31:27.274Z,13.70
2023-02-03T21:33:57.960Z,13.60
2023-02-03T21:36:28.144Z,13.50
2023-02-03T21:38:59.059Z,12.90
2023-02-03T21:41:33.205Z,12.60
2023-02-03T21:44:01.312Z,12.70
2023-02-03T21:46:33.187Z,12.20
2023-02-03T21:49:03.664Z,11.90
2023-02-03T21:51:36.240Z,12.00
2023-02-03T21:54:17.875Z,11.90
2023-02-03T21:56:45.913Z,11.50
2023-02-03T21:59:17.698Z,11.50
2023-02-03T22:01:47.224Z,11.30
2023-02-03T22:04:16.771Z,12.30
2023-02-03T22:06:46.914Z,12.20
2023-02-03T22:09:16.793Z,12.60
2023-02-03T22:11:45.154Z,12.60
2023-02-03T22:14:17.276Z,12.70
2023-02-03T22:16:45.605Z,13.00
2023-02-03T22:19:13.786Z,13.60
2023-02-03T22:21:43.082Z,13.60
2023-02-03T22:24:11.030Z,13.80
2023-02-03T22:26:39.340Z,13.70
2023-02-03T22:29:07.261Z,14.10
2023-02-03T22:31:35.358Z,13.70
2023-02-03T22:34:03.406Z,13.70
2023-02-03T22:36:31.328Z,13.80
2023-02-03T22:39:00.587Z,14.10
2023-02-03T22:41:28.496Z,14.00
2023-02-03T22:43:56.411Z,13.70
2023-02-03T22:46:24.399Z,13.40
2023-02-03T22:48:52.345Z,13.20
2023-02-03T22:51:20.249Z,13.30
2023-02-03T22:53:48.239Z,13.30
2023-02-03T22:56:17.505Z,13.70
2023-02-03T22:58:45.509Z,13.80
2023-02-03T23:01:13.479Z,14.60
2023-02-03T23:03:41.378Z,14.80
2023-02-03T23:06:09.300Z,14.60
2023-02-03T23:08:37.199Z,15.10
2023-02-03T23:11:05.238Z,15.00
2023-02-03T23:13:34.522Z,14.70
2023-02-03T23:16:02.464Z,14.70
2023-02-03T23:18:33.688Z,14.50
2023-02-03T23:21:01.591Z,14.20
2023-02-03T23:23:31.169Z,13.70
2023-02-03T23:25:59.078Z,14.20
2023-02-03T23:28:27.005Z,14.20
2023-02-03T23:30:56.720Z,14.30
2023-02-03T23:33:24.724Z,14.60
2023-02-03T23:35:55.288Z,14.60
2023-02-03T23:38:23.203Z,14.50
2023-02-03T23:40:51.388Z,14.40
2023-02-03T23:43:19.287Z,14.50
2023-02-03T23:45:47.482Z,13.90
2023-02-03T23:48:17.656Z,13.50
2023-02-03T23:50:45.569Z,13.70
2023-02-03T23:53:13.501Z,13.70
2023-02-03T23:55:41.408Z,14.00
2023-02-03T23:58:09.403Z,13.40
